Windy day- 22 November 2012

If you wish to post your complete observations, with or without comments, please use this forum.

Windy day- 22 November 2012

Postby Richard Hunt » 2012 Nov 22, 17:40

Been the windest day here since early January. The wind has picked up as the day has wore on. Dry all day, but the rain is not far away.

HSEA 221700Z 18018G35KT 9999 RE-DZ OVC009 11/09 Q1000 BECMG RA

Day of month: 22
Time: 17:00 UTC
Wind: 180 degrees
Speed: 18 knots, with Gusts of maximum speed 35 knots
Visibility: 10 km or more
Since the previous observation: Light Drizzle
Clouds: Overcast sky , at 900 feet
Temperature: 11 °C
Dewpoint: 09 °C
QNH (Sea-level pressure): 1000 mb
The following weather phenomena are expected to arise soon, Weather: Rain
COL Station: 25020.

Watson W-8681 AWS. Standard Stevenson Screen. Maximum and Minimum screen thermometers. Grass minimum thermometer.
5" Copper standard rain gauge. Roof mounted annemometer.
Richard Hunt
 
Posts: 374
Joined: 2012 Jan 27, 19:23
Location: Hornsea, East Yorkshire. 10m AMSL

Return to Current Conditions



Who is online

Users browsing this forum: No registered users and 1 guest

cron